createdAt,value
2023-01-27T00:01:17.141Z,44.38
2023-01-27T00:03:43.997Z,42.33
2023-01-27T00:06:12.103Z,43.63
2023-01-27T00:08:39.161Z,42.95
2023-01-27T00:11:32.270Z,47.58
2023-01-27T00:13:58.933Z,37.78
2023-01-27T00:16:25.509Z,43.35
2023-01-27T00:18:52.435Z,41.67
2023-01-27T00:21:37.526Z,41.28
2023-01-27T00:24:22.967Z,38.85
2023-01-27T00:26:49.596Z,41.97
2023-01-27T00:29:18.217Z,41.15
2023-01-27T00:32:03.232Z,41.15
2023-01-27T00:34:30.021Z,37.10
2023-01-27T00:36:57.425Z,37.33
2023-01-27T00:39:25.034Z,35.70
2023-01-27T00:41:51.634Z,36.88
2023-01-27T00:44:18.169Z,38.67
2023-01-27T00:46:44.800Z,38.58
2023-01-27T00:49:13.364Z,41.22
2023-01-27T00:51:39.972Z,36.50
2023-01-27T00:54:06.801Z,35.83
2023-01-27T00:56:33.467Z,33.17
2023-01-27T00:59:00.302Z,32.80
2023-01-27T01:01:27.206Z,34.70
2023-01-27T01:03:54.545Z,36.78
2023-01-27T01:06:21.437Z,38.22
2023-01-27T01:08:48.731Z,32.72
2023-01-27T01:11:17.695Z,38.17
2023-01-27T01:13:45.201Z,35.90
2023-01-27T01:16:21.091Z,34.63
2023-01-27T01:18:48.677Z,34.88
2023-01-27T01:21:15.808Z,33.58
2023-01-27T01:23:45.282Z,37.33
2023-01-27T01:26:14.088Z,38.92
2023-01-27T01:28:40.808Z,34.28
2023-01-27T01:31:10.404Z,36.50
2023-01-27T01:33:37.941Z,35.17
2023-01-27T01:36:09.752Z,34.35
2023-01-27T01:38:36.930Z,34.42
2023-01-27T01:41:04.909Z,31.92
2023-01-27T01:43:31.611Z,34.35
2023-01-27T01:45:59.818Z,36.83
2023-01-27T01:48:32.877Z,33.90
2023-01-27T01:51:16.386Z,34.08
2023-01-27T01:54:07.786Z,34.97
2023-01-27T01:56:46.193Z,33.35
2023-01-27T01:59:23.576Z,35.67
2023-01-27T02:01:56.745Z,37.95
2023-01-27T02:04:31.915Z,37.45
2023-01-27T02:07:07.797Z,33.10
2023-01-27T02:09:34.782Z,34.53
2023-01-27T02:12:01.341Z,34.45
2023-01-27T02:14:28.171Z,36.30
2023-01-27T02:16:55.143Z,35.50
2023-01-27T02:19:39.409Z,29.40
2023-01-27T02:22:11.093Z,33.03
2023-01-27T02:24:44.768Z,30.80
2023-01-27T02:29:24.339Z,27.52
2023-01-27T02:31:51.133Z,29.77
2023-01-27T02:34:22.987Z,31.45
2023-01-27T02:37:07.437Z,31.10
2023-01-27T02:39:40.389Z,29.92
2023-01-27T02:42:08.910Z,29.73
2023-01-27T02:44:35.485Z,25.00
2023-01-27T02:47:03.823Z,27.10
2023-01-27T02:49:30.413Z,31.15
2023-01-27T02:51:57.053Z,26.67
2023-01-27T02:54:27.122Z,27.75
2023-01-27T02:56:54.177Z,30.23
2023-01-27T02:59:22.598Z,26.77
2023-01-27T03:01:49.317Z,27.75
2023-01-27T03:04:15.976Z,26.15
2023-01-27T03:06:43.727Z,25.90
2023-01-27T03:09:10.255Z,27.85
2023-01-27T03:11:56.306Z,24.15
2023-01-27T03:14:42.239Z,25.67
2023-01-27T03:17:27.785Z,25.90
2023-01-27T03:19:54.835Z,24.23
2023-01-27T03:22:21.413Z,21.92
2023-01-27T03:24:48.053Z,22.45
2023-01-27T03:27:14.677Z,25.52
2023-01-27T03:30:04.757Z,26.65
2023-01-27T03:32:32.267Z,25.95
2023-01-27T03:35:48.261Z,23.77
2023-01-27T03:41:23.909Z,24.80
2023-01-27T03:44:09.174Z,24.75
2023-01-27T03:46:35.912Z,22.75
2023-01-27T03:51:27.617Z,25.13
2023-01-27T03:53:54.287Z,24.83
2023-01-27T03:56:22.259Z,24.60
2023-01-27T03:58:49.986Z,23.13
2023-01-27T04:01:20.540Z,25.48
2023-01-27T04:04:06.967Z,24.60
2023-01-27T04:06:54.903Z,24.50
2023-01-27T04:09:28.130Z,24.08
2023-01-27T04:11:56.450Z,23.30
2023-01-27T04:14:23.174Z,23.33
2023-01-27T04:16:54.601Z,23.10
2023-01-27T04:19:21.305Z,29.20
2023-01-27T04:21:48.382Z,28.42
2023-01-27T04:24:25.117Z,26.58
2023-01-27T04:26:57.445Z,27.27
2023-01-27T04:31:52.755Z,26.30
2023-01-27T04:34:20.033Z,26.83
2023-01-27T04:36:47.716Z,24.92
2023-01-27T04:39:15.051Z,23.65
2023-01-27T04:41:42.166Z,25.48
2023-01-27T04:44:09.050Z,22.40
2023-01-27T04:46:35.976Z,24.67
2023-01-27T04:49:03.191Z,23.35
2023-01-27T04:51:29.786Z,23.42
2023-01-27T04:53:56.726Z,21.58
2023-01-27T04:56:27.783Z,23.38
2023-01-27T05:01:11.805Z,23.08
2023-01-27T05:03:38.383Z,23.48
2023-01-27T05:06:04.980Z,25.25
2023-01-27T05:08:31.796Z,24.92
2023-01-27T05:10:58.305Z,25.65
2023-01-27T05:13:24.869Z,23.45
2023-01-27T05:15:51.507Z,22.73
2023-01-27T05:18:18.147Z,21.48
2023-01-27T05:20:44.679Z,20.92
2023-01-27T05:23:29.963Z,21.17
2023-01-27T05:25:56.552Z,22.50
2023-01-27T05:28:23.064Z,22.23
2023-01-27T05:30:49.784Z,21.13
2023-01-27T05:33:16.316Z,18.40
2023-01-27T05:35:42.876Z,20.08
2023-01-27T05:38:09.469Z,20.60
2023-01-27T05:40:35.986Z,22.50
2023-01-27T05:43:02.524Z,23.08
2023-01-27T05:45:29.145Z,22.05
2023-01-27T05:47:55.717Z,21.90
2023-01-27T05:50:22.262Z,22.50
2023-01-27T05:52:48.872Z,23.83
2023-01-27T05:55:15.827Z,24.58
2023-01-27T05:57:42.447Z,21.83
2023-01-27T06:00:09.905Z,21.10
2023-01-27T06:02:37.239Z,19.95
2023-01-27T06:05:04.217Z,21.15
2023-01-27T06:09:50.345Z,41.45
2023-01-27T06:12:16.956Z,30.05
2023-01-27T06:14:43.636Z,24.35
2023-01-27T06:17:10.347Z,29.05
2023-01-27T06:19:36.861Z,22.60
2023-01-27T06:22:03.447Z,20.02
2023-01-27T06:24:30.188Z,19.23
2023-01-27T06:26:56.776Z,17.67
2023-01-27T06:29:23.271Z,18.75
2023-01-27T06:31:50.184Z,17.70
2023-01-27T06:34:16.737Z,17.00
2023-01-27T06:36:43.281Z,20.27
2023-01-27T06:39:09.840Z,19.63
2023-01-27T06:41:36.513Z,22.15
2023-01-27T06:44:03.031Z,19.45
2023-01-27T06:46:29.671Z,17.90
2023-01-27T06:48:56.235Z,18.85
2023-01-27T06:51:22.848Z,18.85
2023-01-27T06:53:49.393Z,19.50
2023-01-27T06:56:17.480Z,25.75
2023-01-27T06:58:44.272Z,25.67
2023-01-27T07:01:11.120Z,24.38
2023-01-27T07:03:37.787Z,23.02
2023-01-27T07:06:04.630Z,17.77
2023-01-27T07:08:31.409Z,19.65
2023-01-27T07:10:58.251Z,19.70
2023-01-27T07:13:24.922Z,19.98
2023-01-27T07:18:07.949Z,19.90
2023-01-27T07:20:34.836Z,24.17
2023-01-27T07:23:03.616Z,33.78
2023-01-27T07:25:31.621Z,20.63
2023-01-27T07:27:59.039Z,19.50
2023-01-27T07:30:26.972Z,19.65
2023-01-27T07:32:55.315Z,19.23
2023-01-27T07:35:23.226Z,23.23
2023-01-27T07:37:49.817Z,20.90
2023-01-27T07:40:16.805Z,19.33
2023-01-27T07:42:43.511Z,18.80
2023-01-27T07:45:10.587Z,18.88
2023-01-27T07:47:37.362Z,21.55
2023-01-27T07:50:04.286Z,18.85
2023-01-27T07:52:30.813Z,19.88
2023-01-27T07:54:57.511Z,20.65
2023-01-27T07:59:37.577Z,23.83
2023-01-27T08:02:04.375Z,23.67
2023-01-27T08:04:35.198Z,23.33
2023-01-27T08:07:07.569Z,22.48
2023-01-27T08:09:34.072Z,19.85
2023-01-27T08:12:00.712Z,18.17
2023-01-27T08:14:27.812Z,22.48
2023-01-27T08:16:54.509Z,19.15
2023-01-27T08:19:21.317Z,17.90
2023-01-27T08:21:47.960Z,18.90
2023-01-27T08:24:14.577Z,19.35
2023-01-27T08:26:41.332Z,21.83
2023-01-27T08:29:07.963Z,20.75
2023-01-27T08:31:34.658Z,19.88
2023-01-27T08:34:01.527Z,21.25
2023-01-27T08:36:28.469Z,19.75
2023-01-27T08:38:55.815Z,19.63
2023-01-27T08:41:27.645Z,17.02
2023-01-27T08:43:55.312Z,22.95
2023-01-27T08:46:22.093Z,20.10
2023-01-27T08:48:50.295Z,19.40
2023-01-27T08:51:16.918Z,20.23
2023-01-27T08:53:43.538Z,27.17
2023-01-27T08:56:14.719Z,24.25
2023-01-27T08:58:42.014Z,20.65
2023-01-27T09:01:09.226Z,21.27
2023-01-27T09:03:37.174Z,19.83
2023-01-27T09:06:04.833Z,22.42
2023-01-27T09:08:31.438Z,21.45
2023-01-27T09:11:01.122Z,22.40
2023-01-27T09:13:28.253Z,22.77
2023-01-27T09:15:54.941Z,22.20
2023-01-27T09:18:21.590Z,21.25
2023-01-27T09:20:51.901Z,24.85
2023-01-27T09:23:18.493Z,23.20
2023-01-27T09:25:45.066Z,25.02
2023-01-27T09:28:17.083Z,25.10
2023-01-27T09:30:46.931Z,21.15
2023-01-27T09:33:17.821Z,22.35
2023-01-27T09:35:55.420Z,19.33
2023-01-27T09:38:24.052Z,23.58
2023-01-27T09:41:23.019Z,23.88
2023-01-27T09:44:10.654Z,21.33
2023-01-27T09:46:55.492Z,26.90
2023-01-27T09:51:56.943Z,22.67
2023-01-27T09:54:34.654Z,21.83
2023-01-27T09:57:03.864Z,22.58
2023-01-27T09:59:57.762Z,27.52
2023-01-27T10:02:30.371Z,30.52
2023-01-27T10:05:27.719Z,29.17
2023-01-27T10:08:18.553Z,27.13
2023-01-27T10:11:09.396Z,24.02
2023-01-27T10:13:50.927Z,23.20
2023-01-27T10:16:42.339Z,22.33
2023-01-27T10:19:14.670Z,22.27
2023-01-27T10:24:38.644Z,23.20
2023-01-27T10:27:14.405Z,22.48
2023-01-27T10:30:01.227Z,23.20
2023-01-27T10:32:37.872Z,23.40
2023-01-27T10:35:19.248Z,23.02
2023-01-27T10:38:10.750Z,26.80
2023-01-27T10:40:49.348Z,24.30
2023-01-27T10:43:26.253Z,24.95
2023-01-27T10:46:02.880Z,26.00
2023-01-27T10:48:48.590Z,30.42
2023-01-27T10:53:37.306Z,24.92
2023-01-27T10:56:04.169Z,24.90
2023-01-27T10:58:49.776Z,28.95
2023-01-27T11:01:23.047Z,26.25
2023-01-27T11:03:55.924Z,21.65
2023-01-27T11:06:27.312Z,27.63
2023-01-27T11:09:05.409Z,26.30
2023-01-27T11:11:44.316Z,24.15
2023-01-27T11:14:28.823Z,27.52
2023-01-27T11:17:15.883Z,24.27
2023-01-27T11:19:48.305Z,23.65
2023-01-27T11:22:20.754Z,22.88
2023-01-27T11:25:04.736Z,22.15
2023-01-27T11:27:56.969Z,21.63
2023-01-27T11:30:34.459Z,21.13
2023-01-27T11:33:13.790Z,23.40
2023-01-27T11:35:40.454Z,23.73
2023-01-27T11:38:15.607Z,22.63
2023-01-27T11:40:44.540Z,24.60
2023-01-27T11:43:17.215Z,25.17
2023-01-27T11:45:46.037Z,24.63
2023-01-27T11:48:17.000Z,24.55
2023-01-27T11:50:46.965Z,23.40
2023-01-27T11:53:16.507Z,24.42
2023-01-27T11:55:51.300Z,22.30
2023-01-27T11:58:43.227Z,22.17
2023-01-27T12:01:16.628Z,28.65
2023-01-27T12:03:47.771Z,28.08
2023-01-27T12:06:44.618Z,20.55
2023-01-27T12:09:29.909Z,27.77
2023-01-27T12:12:10.503Z,24.35
2023-01-27T12:14:37.476Z,22.48
2023-01-27T12:17:07.282Z,23.58
2023-01-27T12:19:49.136Z,19.58
2023-01-27T12:22:32.011Z,21.55
2023-01-27T12:25:03.356Z,21.83
2023-01-27T12:27:40.316Z,20.90
2023-01-27T12:30:18.052Z,22.58
2023-01-27T12:32:47.756Z,24.60
2023-01-27T12:35:19.713Z,30.50
2023-01-27T12:37:48.348Z,30.15
2023-01-27T12:40:28.946Z,22.85
2023-01-27T12:43:20.110Z,20.52
2023-01-27T12:46:04.975Z,21.65
2023-01-27T12:48:34.046Z,25.63
2023-01-27T12:51:13.660Z,24.45
2023-01-27T12:53:44.023Z,23.70
2023-01-27T12:56:20.768Z,26.27
2023-01-27T12:59:00.400Z,23.10
2023-01-27T13:01:28.830Z,26.08
2023-01-27T13:03:57.790Z,22.88
2023-01-27T13:06:43.602Z,20.50
2023-01-27T13:09:33.784Z,25.15
2023-01-27T13:12:25.000Z,25.15
2023-01-27T13:14:55.753Z,23.83
2023-01-27T13:17:38.330Z,24.83
2023-01-27T13:20:22.775Z,24.60
2023-01-27T13:23:15.296Z,20.75
2023-01-27T13:25:57.083Z,22.23
2023-01-27T13:28:46.064Z,26.13
2023-01-27T13:31:48.295Z,23.67
2023-01-27T13:34:38.779Z,23.77
2023-01-27T13:37:28.353Z,25.15
2023-01-27T13:40:07.313Z,27.38
2023-01-27T13:42:33.879Z,23.58
2023-01-27T13:45:05.998Z,23.02
2023-01-27T13:47:52.952Z,21.55
2023-01-27T13:50:23.427Z,23.75
2023-01-27T13:53:00.432Z,26.10
2023-01-27T13:56:01.316Z,24.95
2023-01-27T13:58:33.724Z,31.42
2023-01-27T14:03:40.942Z,26.40
2023-01-27T14:06:17.497Z,34.38
2023-01-27T14:11:17.037Z,22.52
2023-01-27T14:14:07.184Z,24.67
2023-01-27T14:16:59.216Z,25.15
2023-01-27T14:19:46.758Z,20.35
2023-01-27T14:22:19.624Z,25.00
2023-01-27T14:24:50.205Z,25.27
2023-01-27T14:27:28.878Z,26.45
2023-01-27T14:30:21.102Z,25.52
2023-01-27T14:33:18.681Z,24.83
2023-01-27T14:35:54.464Z,26.70
2023-01-27T14:39:03.095Z,28.10
2023-01-27T14:42:01.923Z,27.63
2023-01-27T14:44:44.039Z,24.65
2023-01-27T14:47:53.680Z,24.90
2023-01-27T14:50:34.397Z,23.80
2023-01-27T14:53:19.746Z,22.85
2023-01-27T14:55:58.876Z,20.30
2023-01-27T14:58:54.903Z,25.00
2023-01-27T15:01:32.939Z,29.00
2023-01-27T15:04:27.361Z,27.40
2023-01-27T15:07:19.367Z,24.73
2023-01-27T15:09:58.098Z,21.80
2023-01-27T15:12:44.273Z,23.48
2023-01-27T15:15:19.949Z,23.35
2023-01-27T15:18:18.808Z,20.13
2023-01-27T15:21:36.129Z,22.80
2023-01-27T15:24:26.660Z,20.98
2023-01-27T15:26:54.307Z,21.77
2023-01-27T15:29:27.655Z,21.08
2023-01-27T15:32:10.552Z,20.40
2023-01-27T15:34:37.496Z,20.92
2023-01-27T15:37:19.502Z,21.95
2023-01-27T15:40:15.490Z,18.00
2023-01-27T15:42:52.517Z,20.13
2023-01-27T15:45:31.229Z,19.52
2023-01-27T15:48:00.905Z,22.15
2023-01-27T15:50:31.179Z,18.63
2023-01-27T15:53:12.698Z,20.33
2023-01-27T15:55:49.297Z,18.60
2023-01-27T15:58:37.926Z,18.98
2023-01-27T16:01:08.380Z,19.17
2023-01-27T16:03:38.832Z,16.90
2023-01-27T16:06:12.265Z,16.77
2023-01-27T16:08:43.299Z,16.50
2023-01-27T16:11:40.890Z,11.70
2023-01-27T16:14:17.097Z,14.63
2023-01-27T16:17:09.585Z,15.82
2023-01-27T16:19:48.705Z,15.82
2023-01-27T16:22:19.576Z,13.18
2023-01-27T16:24:56.329Z,15.32
2023-01-27T16:28:14.490Z,13.77
2023-01-27T16:30:56.881Z,17.98
2023-01-27T16:36:06.273Z,16.98
2023-01-27T16:38:40.091Z,13.50
2023-01-27T16:41:21.328Z,15.73
2023-01-27T16:44:01.216Z,18.52
2023-01-27T16:46:41.701Z,15.60
2023-01-27T16:51:29.507Z,10.68
2023-01-27T16:53:58.587Z,8.90
2023-01-27T16:56:27.993Z,13.02
2023-01-27T16:59:00.633Z,17.08
2023-01-27T17:01:46.530Z,16.30
2023-01-27T17:04:21.053Z,14.77
2023-01-27T17:06:52.602Z,19.42
2023-01-27T17:09:24.858Z,15.65
2023-01-27T17:14:30.553Z,14.93
2023-01-27T17:17:06.211Z,12.68
2023-01-27T17:19:36.873Z,14.32
2023-01-27T17:22:13.639Z,14.60
2023-01-27T17:24:50.117Z,14.52
2023-01-27T17:27:18.112Z,12.30
2023-01-27T17:29:47.638Z,16.75
2023-01-27T17:32:31.938Z,14.30
2023-01-27T17:35:02.113Z,13.85
2023-01-27T17:37:31.230Z,14.52
2023-01-27T17:39:59.997Z,15.23
2023-01-27T17:42:31.605Z,17.17
2023-01-27T17:45:31.925Z,14.52
2023-01-27T17:48:00.252Z,18.73
2023-01-27T17:50:38.089Z,16.38
2023-01-27T17:53:11.546Z,17.48
2023-01-27T17:55:39.166Z,15.15
2023-01-27T17:58:08.305Z,18.17
2023-01-27T18:00:38.610Z,22.02
2023-01-27T18:03:21.753Z,21.38
2023-01-27T18:05:51.359Z,24.75
2023-01-27T18:08:19.395Z,23.75
2023-01-27T18:10:46.425Z,23.85
2023-01-27T18:13:15.635Z,28.42
2023-01-27T18:16:18.713Z,23.27
2023-01-27T18:18:46.547Z,27.48
2023-01-27T18:21:19.190Z,28.15
2023-01-27T18:23:47.911Z,25.13
2023-01-27T18:26:17.350Z,19.85
2023-01-27T18:28:45.925Z,30.95
2023-01-27T18:31:17.297Z,25.60
2023-01-27T18:33:46.399Z,21.35
2023-01-27T18:36:24.457Z,27.10
2023-01-27T18:38:51.480Z,21.90
2023-01-27T18:41:27.378Z,23.38
2023-01-27T18:43:57.841Z,26.00
2023-01-27T18:48:42.732Z,18.85
2023-01-27T18:51:14.373Z,22.67
2023-01-27T18:53:42.650Z,32.45
2023-01-27T18:56:09.697Z,25.02
2023-01-27T18:58:37.017Z,22.88
2023-01-27T19:01:06.885Z,23.17
2023-01-27T19:03:38.896Z,23.38
2023-01-27T19:06:13.929Z,23.30
2023-01-27T19:08:40.692Z,21.23
2023-01-27T19:11:09.142Z,23.45
2023-01-27T19:13:35.773Z,19.15
2023-01-27T19:16:02.516Z,20.67
2023-01-27T19:18:34.419Z,20.67
2023-01-27T19:21:05.228Z,19.02
2023-01-27T19:23:32.716Z,16.85
2023-01-27T19:26:02.474Z,18.30
2023-01-27T19:28:31.791Z,17.65
2023-01-27T19:31:00.021Z,18.10
2023-01-27T19:33:28.287Z,16.98
2023-01-27T19:36:24.165Z,14.88
2023-01-27T19:39:01.221Z,17.50
2023-01-27T19:41:29.514Z,19.63
2023-01-27T19:43:56.227Z,16.02
2023-01-27T19:46:23.354Z,16.75
2023-01-27T19:48:52.180Z,17.05
2023-01-27T19:51:19.373Z,17.85
2023-01-27T19:53:46.570Z,16.92
2023-01-27T19:56:16.962Z,15.25
2023-01-27T19:58:47.144Z,16.50
2023-01-27T20:01:13.853Z,20.83
2023-01-27T20:03:40.625Z,19.67
2023-01-27T20:06:17.784Z,20.00
2023-01-27T20:08:45.017Z,22.65
2023-01-27T20:11:29.620Z,19.55
2023-01-27T20:13:56.706Z,18.38
2023-01-27T20:16:25.597Z,17.63
2023-01-27T20:18:53.721Z,17.98
2023-01-27T20:21:20.805Z,15.38
2023-01-27T20:23:48.769Z,17.85
2023-01-27T20:26:16.277Z,19.75
2023-01-27T20:28:46.178Z,15.52
2023-01-27T20:31:14.855Z,17.10
2023-01-27T20:33:44.002Z,17.92
2023-01-27T20:36:16.807Z,16.58
2023-01-27T20:38:44.002Z,16.45
2023-01-27T20:41:14.762Z,18.30
2023-01-27T20:43:41.974Z,16.77
2023-01-27T20:46:11.989Z,17.45
2023-01-27T20:48:41.501Z,17.65
2023-01-27T20:51:13.740Z,17.83
2023-01-27T20:53:45.238Z,19.45
2023-01-27T20:56:14.885Z,15.27
2023-01-27T20:58:42.485Z,17.45
2023-01-27T21:01:12.400Z,17.25
2023-01-27T21:03:40.231Z,17.33
2023-01-27T21:06:10.614Z,16.05
2023-01-27T21:08:37.642Z,21.00
2023-01-27T21:11:06.570Z,19.50
2023-01-27T21:13:33.789Z,22.92
2023-01-27T21:16:01.777Z,29.95
2023-01-27T21:18:29.220Z,25.55
2023-01-27T21:21:02.141Z,24.55
2023-01-27T21:23:29.338Z,21.85
2023-01-27T21:25:56.432Z,20.63
2023-01-27T21:28:26.117Z,19.15
2023-01-27T21:30:52.718Z,20.95
2023-01-27T21:33:19.524Z,20.15
2023-01-27T21:35:54.487Z,21.48
2023-01-27T21:38:21.255Z,22.67
2023-01-27T21:40:47.838Z,21.90
2023-01-27T21:43:32.947Z,24.38
2023-01-27T21:46:01.097Z,17.45
2023-01-27T21:48:27.722Z,25.88
2023-01-27T21:53:15.231Z,20.08
2023-01-27T21:55:45.813Z,22.88
2023-01-27T21:58:12.336Z,21.77
2023-01-27T22:00:39.819Z,20.90
2023-01-27T22:03:07.310Z,24.77
2023-01-27T22:05:37.500Z,23.30
2023-01-27T22:10:23.520Z,21.83
2023-01-27T22:12:51.197Z,21.25
2023-01-27T22:15:20.080Z,21.73
2023-01-27T22:17:47.020Z,18.65
2023-01-27T22:20:17.459Z,19.40
2023-01-27T22:22:45.170Z,20.23
2023-01-27T22:25:14.871Z,21.05
2023-01-27T22:27:43.062Z,23.80
2023-01-27T22:30:18.676Z,19.88
2023-01-27T22:32:48.366Z,19.88
2023-01-27T22:35:17.619Z,21.98
2023-01-27T22:37:45.894Z,25.05
2023-01-27T22:40:13.378Z,21.10
2023-01-27T22:42:40.142Z,19.38
2023-01-27T22:45:10.642Z,21.30
2023-01-27T22:47:37.384Z,17.42
2023-01-27T22:50:04.352Z,16.48
2023-01-27T22:52:30.999Z,21.35
2023-01-27T22:54:57.553Z,20.52
2023-01-27T22:57:30.066Z,22.85
2023-01-27T22:59:58.234Z,23.90
2023-01-27T23:04:57.054Z,22.15
2023-01-27T23:07:24.068Z,18.75
2023-01-27T23:09:50.704Z,21.73
2023-01-27T23:12:18.174Z,17.58
2023-01-27T23:14:44.910Z,20.35
2023-01-27T23:17:11.616Z,21.50
2023-01-27T23:19:38.212Z,18.52
2023-01-27T23:22:04.997Z,17.33
2023-01-27T23:24:31.817Z,19.58
2023-01-27T23:26:59.134Z,21.05
2023-01-27T23:29:26.829Z,19.42
2023-01-27T23:31:55.113Z,18.60
2023-01-27T23:34:21.892Z,18.23
2023-01-27T23:36:48.928Z,18.27
2023-01-27T23:39:16.371Z,18.05
2023-01-27T23:41:42.988Z,16.52
2023-01-27T23:44:11.200Z,17.65
2023-01-27T23:46:38.271Z,18.55
2023-01-27T23:49:04.834Z,19.20
2023-01-27T23:51:31.879Z,19.80
2023-01-27T23:53:58.474Z,16.77
2023-01-27T23:56:25.135Z,19.88
2023-01-27T23:58:51.734Z,20.15
